Información del aeropuerto GMMX

Información de pista
Pista 10 Longitud 10170 ft Anchura 148 ft
Elevación 1506 ft Umbral 918 ft Rumbo 96
Pista 28 Longitud 10170 ft Anchura 148 ft
Elevación 1545 ft Umbral 0 ft Rumbo 276
Frecuencias del aeropuerto
Tipo APP Nombre MARRAKECH Frecuencia 119.7 MHZ
Tipo TWR Nombre MARRAKECH Frecuencia 118.7 MHZ
Radioayudas del aeropuerto
Tipo NDB Nombre Marrakech Frecuencia 267 KHZ
Tipo VOR-DME Nombre Marrakech Frecuencia 113300 KHZ
Información meteorológica del aeropuerto y NOTAM
ADDS - METARS form results

(2204 UTC 19 May 2022)
Data provider http://aviationweather.gov/metar/data/
 
METAR text: GMMX 192200Z 24006KT 8000 SCT100 SCT200 28/15 Q1013 TEMPO 32022KT
Conditions at: GMMX (MARRAKECH/MENARA, MA) observed 2200 UTC 19 May 2022
Temperature: 28.0°C (82°F)
Dewpoint: 15.0°C (59°F) [RH = 45%]
Pressure (altimeter): 29.91 inches Hg (1013.0 mb)
Winds: from the WSW (240 degrees) at 7 MPH (6 knots; 3.1 m/s)
Visibility: 5 miles ( 8 km)
Ceiling: at least 12,000 feet AGL
Clouds: scattered clouds at 10000 feet AGL
scattered clouds at 20000 feet AGL
Weather: no significant weather observed at this time

METAR text: GMMX 192130Z 27008KT 8000 SCT100 SCT200 29/15 Q1013 TEMPO 32022KT
Conditions at: GMMX (MARRAKECH/MENARA, MA) observed 2130 UTC 19 May 2022
Temperature: 29.0°C (84°F)
Dewpoint: 15.0°C (59°F) [RH = 43%]
Pressure (altimeter): 29.91 inches Hg (1013.0 mb)
Winds: from the W (270 degrees) at 9 MPH (8 knots; 4.1 m/s)
Visibility: 5 miles ( 8 km)
Ceiling: at least 12,000 feet AGL
Clouds: scattered clouds at 10000 feet AGL
scattered clouds at 20000 feet AGL
Weather: no significant weather observed at this time

Forecast for: COR
Text: TAF COR GMMX 191700Z 1918/2024 06014KT 9000 NSC
Forecast period: 1800 to 2200 UTC 19 May 2022
Forecast type: FROM: standard forecast or significant change
Winds: from the ENE (60 degrees) at 16 MPH (14 knots; 7.2 m/s)
Visibility: 6 miles (9 km)
Ceiling: unknown
Clouds: missing
Weather: no significant weather forecast for this period
Text: BECMG 1922/1901 08006KT SCT100
Forecast period: 2200 UTC 19 May 2022 to 0000 UTC 21 May 2022
Forecast type: BECOMING: Conditions expected to become as follows by 0100 UTC 19 May 2022
Winds: from the E (80 degrees) at 7 MPH (6 knots; 3.1 m/s)
Visibility: 6 miles (9 km)
Ceiling: at least 12,000 feet AGL
Clouds: scattered clouds at 10000 feet AGL
Weather: no significant weather forecast for this period
Text: PROB30
Forecast period: 0400 to 0700 UTC 20 May 2022
Forecast type: TEMPORARY: The following changes expected for less than half the time period
Visibility: 2.49 miles (4.01 km)
Ceiling: 1000 feet AGL
Clouds: broken clouds at 1000 feet AGL
Weather: BR  (mist)